Time;durP1;ratioP1;P1;durP2;ratioP2;P2;SDS_P1;SDS_P2;PMS_P1;PMS_P2;Temp;Humidity;BMP_temperature;BMP_pressure;BME280_temperature;BME280_humidity;BME280_pressure;Samples;Min_cycle;Max_cycle;Signal;HPM_P1;HPM_P2
2022/07/12 00:03:22;;;;;;;;;;;18.20;99.90;;;;;;8369573;28;19952;-76
2022/07/12 00:07:24;;;;;;;;;;;18.10;99.90;;;;;;8380241;28;20038;-75
2022/07/12 00:11:25;;;;;;;;;;;18.10;99.90;;;;;;8393415;28;19928;-76
2022/07/12 00:15:27;;;;;;;;;;;18.10;99.90;;;;;;8382682;28;20367;-76
2022/07/12 00:19:29;;;;;;;;;;;18.10;99.90;;;;;;8384343;28;19920;-76
2022/07/12 00:23:31;;;;;;;;;;;18.00;99.90;;;;;;8397509;28;19920;-75
2022/07/12 00:27:32;;;;;;;;;;;18.00;99.90;;;;;;8388352;28;19924;-75
2022/07/12 00:31:34;;;;;;;;;;;17.90;99.90;;;;;;8384756;28;19925;-75
2022/07/12 00:35:36;;;;;;;;;;;17.90;99.90;;;;;;8376151;28;19924;-76
2022/07/12 00:39:38;;;;;;;;;;;17.80;99.90;;;;;;8388356;28;19921;-76
2022/07/12 00:43:39;;;;;;;;;;;17.80;99.90;;;;;;8399462;28;19921;-76
2022/07/12 00:47:45;;;;;;;;;;;17.70;99.90;;;;;;8400167;28;20007;-75
2022/07/12 00:51:47;;;;;;;;;;;17.70;99.90;;;;;;8386670;28;20359;-75
2022/07/12 00:55:55;;;;;;;;;;;17.60;99.90;;;;;;8400539;28;21284;-75
2022/07/12 00:59:56;;;;;;;;;;;17.60;99.90;;;;;;8399806;28;19932;-76
2022/07/12 01:03:58;;;;;;;;;;;17.60;99.90;;;;;;8390293;28;20291;-75
2022/07/12 01:08:00;;;;;;;;;;;17.50;99.90;;;;;;8389292;28;19990;-75
2022/07/12 01:12:03;;;;;;;;;;;17.50;99.90;;;;;;8409169;28;20292;-75
2022/07/12 01:16:05;;;;;;;;;;;17.40;99.90;;;;;;8393675;28;19928;-75
2022/07/12 01:20:07;;;;;;;;;;;17.40;99.90;;;;;;8386263;28;19931;-76
2022/07/12 01:24:09;;;;;;;;;;;17.30;99.90;;;;;;8396523;28;19932;-75
2022/07/12 01:28:11;;;;;;;;;;;17.30;99.90;;;;;;8396626;28;19924;-76
2022/07/12 01:32:25;;;;;;;;;;;17.30;99.90;;;;;;8389253;28;19924;-75
2022/07/12 01:36:27;;;;;;;;;;;17.30;99.90;;;;;;8388220;28;19931;-76
2022/07/12 01:40:29;;;;;;;;;;;17.20;99.90;;;;;;8385069;28;19925;-76
2022/07/12 01:44:31;;;;;;;;;;;17.20;99.90;;;;;;8396267;28;19924;-75
2022/07/12 01:48:33;;;;;;;;;;;17.10;99.90;;;;;;8388156;28;19943;-76
2022/07/12 01:52:36;;;;;;;;;;;17.10;99.90;;;;;;8389200;28;19933;-76
2022/07/12 01:56:38;;;;;;;;;;;17.00;99.90;;;;;;8389886;28;19925;-75
2022/07/12 02:00:39;;;;;;;;;;;16.90;99.90;;;;;;8367848;28;19924;-76
2022/07/12 02:04:41;;;;;;;;;;;16.90;99.90;;;;;;8387463;28;20054;-76
2022/07/12 02:08:43;;;;;;;;;;;16.80;99.90;;;;;;8395792;28;19928;-75
2022/07/12 02:12:45;;;;;;;;;;;16.80;99.90;;;;;;8393212;28;20328;-75
2022/07/12 02:16:47;;;;;;;;;;;16.80;99.90;;;;;;8391119;28;19924;-76
2022/07/12 02:20:49;;;;;;;;;;;16.70;99.90;;;;;;8395865;28;20361;-75
2022/07/12 02:24:50;;;;;;;;;;;16.60;99.90;;;;;;8391878;28;19924;-76
2022/07/12 02:28:52;;;;;;;;;;;16.60;99.90;;;;;;8395633;28;19925;-76
2022/07/12 02:32:54;;;;;;;;;;;16.60;99.90;;;;;;8395220;28;19935;-75
2022/07/12 02:36:56;;;;;;;;;;;16.50;99.90;;;;;;8388784;28;19994;-75
2022/07/12 02:40:58;;;;;;;;;;;16.50;99.90;;;;;;8393397;28;19924;-75
2022/07/12 02:44:59;;;;;;;;;;;16.40;99.90;;;;;;8394856;28;19936;-76
2022/07/12 02:49:01;;;;;;;;;;;16.40;99.90;;;;;;8389026;28;19924;-76
2022/07/12 02:53:03;;;;;;;;;;;16.40;99.90;;;;;;8373019;28;20465;-75
2022/07/12 02:57:05;;;;;;;;;;;16.40;99.90;;;;;;8383925;28;21169;-75
2022/07/12 03:01:06;;;;;;;;;;;16.40;99.90;;;;;;8392893;28;20382;-75
2022/07/12 03:05:08;;;;;;;;;;;16.30;99.90;;;;;;8393255;28;19925;-76
2022/07/12 03:09:10;;;;;;;;;;;16.30;99.90;;;;;;8390391;28;19924;-76
2022/07/12 03:13:14;;;;;;;;;;;16.20;99.90;;;;;;8375445;28;20483;-75
2022/07/12 03:17:16;;;;;;;;;;;16.20;99.90;;;;;;8367246;28;19925;-75
2022/07/12 03:21:18;;;;;;;;;;;16.20;99.90;;;;;;8368694;28;19931;-76
2022/07/12 03:25:20;;;;;;;;;;;16.10;99.90;;;;;;8396605;28;20254;-75
2022/07/12 03:29:22;;;;;;;;;;;16.10;99.90;;;;;;8392070;28;19925;-75
2022/07/12 03:33:24;;;;;;;;;;;16.10;99.90;;;;;;8392232;28;19933;-76
2022/07/12 03:37:40;;;;;;;;;;;16.00;99.90;;;;;;8366280;28;19933;-76
2022/07/12 03:41:42;;;;;;;;;;;16.00;99.90;;;;;;8380016;28;20368;-76
2022/07/12 03:45:45;;;;;;;;;;;16.00;99.90;;;;;;8374256;28;19933;-75
2022/07/12 03:49:47;;;;;;;;;;;16.00;99.90;;;;;;8386898;28;20353;-76
2022/07/12 03:53:48;;;;;;;;;;;15.90;99.90;;;;;;8396310;28;19932;-76
2022/07/12 03:57:51;;;;;;;;;;;15.90;99.90;;;;;;8384864;28;19928;-76
2022/07/12 04:01:52;;;;;;;;;;;15.90;99.90;;;;;;8387040;28;19928;-76
2022/07/12 04:05:54;;;;;;;;;;;15.90;99.90;;;;;;8380832;28;19925;-76
2022/07/12 04:10:01;;;;;;;;;;;15.90;99.90;;;;;;8381921;28;20300;-76
2022/07/12 04:14:03;;;;;;;;;;;15.90;99.90;;;;;;8387460;28;19936;-76
2022/07/12 04:18:05;;;;;;;;;;;15.90;99.90;;;;;;8388494;28;19932;-76
2022/07/12 04:22:07;;;;;;;;;;;15.90;99.90;;;;;;8386688;28;19969;-76
2022/07/12 04:26:08;;;;;;;;;;;16.00;99.90;;;;;;8385559;28;20053;-76
2022/07/12 04:30:10;;;;;;;;;;;16.00;99.90;;;;;;8384535;28;19925;-76
2022/07/12 04:34:16;;;;;;;;;;;16.10;99.90;;;;;;8373244;28;20629;-76
2022/07/12 04:38:18;;;;;;;;;;;16.10;99.90;;;;;;8384601;28;19925;-76
2022/07/12 04:42:20;;;;;;;;;;;16.10;99.90;;;;;;8400098;28;19928;-76
2022/07/12 04:46:21;;;;;;;;;;;16.20;99.90;;;;;;8372864;28;19986;-77
2022/07/12 04:50:23;;;;;;;;;;;16.20;99.90;;;;;;8366549;28;19933;-77
2022/07/12 04:54:25;;;;;;;;;;;16.30;99.90;;;;;;8383561;28;19925;-76
2022/07/12 04:58:27;;;;;;;;;;;16.40;99.90;;;;;;8373754;28;19928;-76
2022/07/12 05:02:28;;;;;;;;;;;16.50;99.90;;;;;;8378678;28;20291;-76
2022/07/12 05:06:30;;;;;;;;;;;16.60;99.90;;;;;;8362861;28;19932;-76
2022/07/12 05:10:31;;;;;;;;;;;16.70;99.90;;;;;;8381988;28;19925;-76
2022/07/12 05:14:33;;;;;;;;;;;16.80;99.90;;;;;;8384345;28;20034;-76
2022/07/12 05:18:35;;;;;;;;;;;16.90;99.90;;;;;;8383563;28;20147;-76
2022/07/12 05:22:37;;;;;;;;;;;16.90;99.90;;;;;;8389394;28;19966;-76
2022/07/12 05:26:39;;;;;;;;;;;17.00;99.90;;;;;;8386928;28;19936;-76
2022/07/12 05:30:40;;;;;;;;;;;17.10;99.90;;;;;;8382172;28;19932;-76
2022/07/12 05:34:42;;;;;;;;;;;17.30;99.90;;;;;;8377468;28;19950;-75
2022/07/12 05:38:44;;;;;;;;;;;17.40;99.90;;;;;;8382180;28;20000;-76
2022/07/12 05:42:46;;;;;;;;;;;17.50;99.90;;;;;;8407263;28;19943;-76
2022/07/12 05:46:48;;;;;;;;;;;17.70;99.90;;;;;;8381884;28;19925;-76
2022/07/12 05:50:50;;;;;;;;;;;17.70;99.90;;;;;;8378683;28;19929;-76
2022/07/12 05:54:51;;;;;;;;;;;17.90;99.90;;;;;;8387660;28;19933;-76
2022/07/12 05:58:53;;;;;;;;;;;18.00;99.90;;;;;;8388902;28;19940;-76
2022/07/12 06:02:55;;;;;;;;;;;18.10;99.90;;;;;;8367066;28;19929;-76
2022/07/12 06:06:57;;;;;;;;;;;18.20;99.90;;;;;;8375578;28;19936;-76
2022/07/12 06:10:59;;;;;;;;;;;18.30;99.90;;;;;;8365007;28;19943;-76
2022/07/12 06:15:02;;;;;;;;;;;18.40;99.90;;;;;;8365862;28;19929;-76
2022/07/12 06:19:03;;;;;;;;;;;18.40;99.90;;;;;;8364399;28;19929;-76
2022/07/12 06:23:05;;;;;;;;;;;18.50;99.90;;;;;;8347048;28;20265;-76
2022/07/12 06:27:07;;;;;;;;;;;18.70;99.90;;;;;;8361310;28;19939;-76
2022/07/12 06:31:09;;;;;;;;;;;18.80;99.90;;;;;;8364401;28;19966;-76
2022/07/12 06:35:10;;;;;;;;;;;18.90;99.90;;;;;;8363057;28;19924;-76
2022/07/12 06:39:12;;;;;;;;;;;19.10;99.90;;;;;;8361669;28;19933;-76
2022/07/12 06:43:14;;;;;;;;;;;19.10;99.90;;;;;;8364808;28;19936;-76
2022/07/12 06:47:15;;;;;;;;;;;19.20;99.90;;;;;;8364830;28;19936;-76
2022/07/12 06:51:17;;;;;;;;;;;19.30;99.90;;;;;;8358524;28;19929;-75
2022/07/12 06:55:19;;;;;;;;;;;19.40;99.90;;;;;;8364738;28;19936;-75
2022/07/12 06:59:20;;;;;;;;;;;19.50;99.90;;;;;;8361649;28;20295;-76
2022/07/12 07:03:22;;;;;;;;;;;19.50;99.90;;;;;;8343701;28;19925;-75
2022/07/12 07:07:23;;;;;;;;;;;19.50;99.90;;;;;;8359498;28;19941;-75
2022/07/12 07:11:26;;;;;;;;;;;19.50;99.90;;;;;;8359770;28;19925;-75
2022/07/12 07:15:27;;;;;;;;;;;19.60;99.90;;;;;;8362381;28;19933;-76
2022/07/12 07:19:29;;;;;;;;;;;19.60;99.90;;;;;;8377074;28;19925;-76
2022/07/12 07:23:30;;;;;;;;;;;19.60;99.90;;;;;;8346590;28;19924;-75
2022/07/12 07:27:32;;;;;;;;;;;19.70;99.90;;;;;;8363766;28;19933;-75
2022/07/12 07:31:35;;;;;;;;;;;19.70;99.90;;;;;;8359155;28;19929;-75
2022/07/12 07:35:37;;;;;;;;;;;19.80;99.90;;;;;;8359240;28;19929;-75
2022/07/12 07:39:39;;;;;;;;;;;19.90;99.90;;;;;;8373763;28;19966;-75
2022/07/12 07:43:40;;;;;;;;;;;20.00;99.90;;;;;;8361598;28;19928;-75
2022/07/12 07:47:46;;;;;;;;;;;20.00;99.90;;;;;;8362644;28;19932;-75
2022/07/12 07:52:07;;;;;;;;;;;20.10;99.90;;;;;;8362621;28;19939;-76
2022/07/12 07:56:09;;;;;;;;;;;20.20;99.90;;;;;;8359885;28;19929;-75
2022/07/12 08:00:11;;;;;;;;;;;20.30;99.90;;;;;;8358836;28;19941;-75
2022/07/12 08:04:13;;;;;;;;;;;20.40;99.90;;;;;;8362875;28;20022;-76
2022/07/12 08:08:15;;;;;;;;;;;20.40;99.90;;;;;;8365517;28;20265;-75
2022/07/12 08:12:16;;;;;;;;;;;20.50;99.90;;;;;;8361425;28;20255;-75
2022/07/12 08:16:22;;;;;;;;;;;20.60;99.90;;;;;;8363021;28;19925;-76
2022/07/12 08:20:24;;;;;;;;;;;20.70;99.90;;;;;;8363667;28;20019;-75
2022/07/12 08:24:45;;;;;;;;;;;20.70;99.90;;;;;;8364436;28;19956;-75
2022/07/12 08:28:47;;;;;;;;;;;20.80;99.90;;;;;;8357319;28;20455;-76
2022/07/12 08:32:49;;;;;;;;;;;20.80;99.90;;;;;;8344382;28;20273;-75
2022/07/12 08:36:50;;;;;;;;;;;20.90;99.90;;;;;;8348024;28;19929;-75
2022/07/12 08:40:52;;;;;;;;;;;21.00;99.90;;;;;;8375743;28;20365;-76
2022/07/12 08:44:54;;;;;;;;;;;21.00;99.90;;;;;;8367181;28;19932;-76
2022/07/12 08:48:56;;;;;;;;;;;21.10;99.90;;;;;;8366716;28;19925;-76
2022/07/12 08:52:58;;;;;;;;;;;21.10;99.90;;;;;;8364004;28;19932;-76
2022/07/12 08:57:00;;;;;;;;;;;21.20;99.90;;;;;;8369100;28;19932;-77
2022/07/12 09:01:01;;;;;;;;;;;21.30;99.90;;;;;;8365875;28;19936;-75
2022/07/12 09:05:07;;;;;;;;;;;21.40;99.90;;;;;;8366975;28;19929;-75
2022/07/12 09:09:09;;;;;;;;;;;21.50;99.90;;;;;;8368437;28;19947;-75
2022/07/12 09:13:10;;;;;;;;;;;21.60;99.90;;;;;;8369725;28;19925;-75
2022/07/12 09:17:13;;;;;;;;;;;21.70;99.90;;;;;;8366730;28;19925;-76
2022/07/12 09:21:21;;;;;;;;;;;21.70;99.90;;;;;;8366947;28;19932;-75
2022/07/12 09:25:23;;;;;;;;;;;21.80;99.90;;;;;;8361400;28;19939;-77
2022/07/12 09:29:25;;;;;;;;;;;21.90;99.90;;;;;;8366996;28;19928;-76
2022/07/12 09:37:47;;;;;;;;;;;22.10;99.90;;;;;;8365918;28;19959;-76
2022/07/12 09:41:49;;;;;;;;;;;22.20;99.90;;;;;;8366952;28;19952;-76
2022/07/12 09:45:50;;;;;;;;;;;22.20;99.90;;;;;;8363797;28;19952;-76
2022/07/12 09:49:53;;;;;;;;;;;22.30;99.90;;;;;;8366192;28;19932;-76
2022/07/12 09:53:58;;;;;;;;;;;22.40;99.90;;;;;;8367237;28;19924;-76
2022/07/12 09:58:01;;;;;;;;;;;22.50;99.90;;;;;;8362340;28;19925;-77
2022/07/12 10:02:05;;;;;;;;;;;22.50;99.90;;;;;;8367208;28;19966;-76
2022/07/12 10:06:07;;;;;;;;;;;22.60;99.90;;;;;;8370571;28;19931;-77
2022/07/12 10:10:09;;;;;;;;;;;22.80;99.90;;;;;;8366007;28;20356;-76
2022/07/12 10:14:12;;;;;;;;;;;22.80;99.90;;;;;;8365208;28;20356;-76
2022/07/12 10:18:17;;;;;;;;;;;22.90;99.90;;;;;;8363149;28;19925;-77
2022/07/12 10:22:20;;;;;;;;;;;23.00;99.90;;;;;;8361315;28;19976;-77
2022/07/12 10:26:26;;;;;;;;;;;23.10;99.90;;;;;;8382564;28;19970;-77
2022/07/12 10:30:28;;;;;;;;;;;23.20;99.90;;;;;;8372459;28;19929;-76
2022/07/12 10:34:30;;;;;;;;;;;23.20;99.90;;;;;;8364649;28;19925;-76
2022/07/12 10:38:32;;;;;;;;;;;23.30;99.90;;;;;;8362677;28;19936;-76
2022/07/12 10:42:34;;;;;;;;;;;23.40;99.90;;;;;;8362684;28;19928;-77
2022/07/12 10:46:37;;;;;;;;;;;23.50;99.90;;;;;;8362597;28;19933;-76
2022/07/12 10:50:42;;;;;;;;;;;23.50;99.90;;;;;;8360706;28;19928;-76
2022/07/12 10:55:06;;;;;;;;;;;23.60;99.90;;;;;;8364462;28;20347;-76
2022/07/12 10:59:08;;;;;;;;;;;23.70;99.90;;;;;;8350115;28;19928;-76
2022/07/12 11:03:14;;;;;;;;;;;23.70;99.90;;;;;;8363487;28;19937;-76
2022/07/12 11:07:19;;;;;;;;;;;23.70;99.90;;;;;;8361952;28;19932;-76
2022/07/12 11:11:21;;;;;;;;;;;23.70;99.90;;;;;;8362324;28;19932;-77
2022/07/12 11:15:23;;;;;;;;;;;23.70;99.90;;;;;;8361158;28;19925;-77
2022/07/12 11:19:26;;;;;;;;;;;23.80;99.90;;;;;;8378780;28;19925;-77
2022/07/12 11:23:28;;;;;;;;;;;23.90;99.90;;;;;;8358499;28;19944;-76
2022/07/12 11:27:29;;;;;;;;;;;24.00;99.90;;;;;;8360547;28;19928;-76
2022/07/12 11:31:31;;;;;;;;;;;24.10;99.90;;;;;;8363553;28;19928;-76
2022/07/12 11:35:33;;;;;;;;;;;24.20;99.90;;;;;;8361031;28;20303;-77
2022/07/12 11:39:39;;;;;;;;;;;24.30;99.90;;;;;;8362115;28;20026;-76
2022/07/12 11:43:41;;;;;;;;;;;24.40;99.90;;;;;;8376113;28;19935;-77
2022/07/12 11:47:42;;;;;;;;;;;24.50;99.90;;;;;;8361875;28;19924;-76
2022/07/12 11:51:45;;;;;;;;;;;24.50;99.90;;;;;;8365735;28;19935;-76
2022/07/12 11:55:48;;;;;;;;;;;24.70;99.90;;;;;;8358215;28;20142;-76
2022/07/12 11:59:50;;;;;;;;;;;24.70;99.90;;;;;;8359348;28;19932;-75
2022/07/12 12:03:52;;;;;;;;;;;24.80;99.90;;;;;;8361808;28;20031;-75
2022/07/12 12:07:54;;;;;;;;;;;24.80;99.90;;;;;;8380163;28;19924;-76
2022/07/12 12:11:56;;;;;;;;;;;24.90;99.90;;;;;;8369068;28;19964;-76
2022/07/12 12:15:59;;;;;;;;;;;24.90;99.90;;;;;;8373399;28;20024;-76
2022/07/12 12:20:21;;;;;;;;;;;25.00;99.90;;;;;;8362806;28;20303;-76
2022/07/12 12:24:22;;;;;;;;;;;25.00;99.90;;;;;;8367722;28;19955;-76
2022/07/12 12:28:24;;;;;;;;;;;25.10;99.90;;;;;;8367238;28;20371;-76
2022/07/12 12:32:26;;;;;;;;;;;25.10;99.90;;;;;;8369011;28;20319;-76
2022/07/12 12:36:36;;;;;;;;;;;25.20;99.90;;;;;;8366225;28;20383;-76
2022/07/12 12:40:38;;;;;;;;;;;25.20;99.90;;;;;;8364193;28;19942;-76
2022/07/12 12:44:41;;;;;;;;;;;25.30;99.90;;;;;;8369443;28;20303;-76
2022/07/12 12:48:46;;;;;;;;;;;25.30;99.90;;;;;;8375372;28;20291;-76
2022/07/12 12:52:48;;;;;;;;;;;25.40;99.90;;;;;;8386322;28;19921;-75
2022/07/12 12:56:50;;;;;;;;;;;25.50;99.90;;;;;;8376903;28;19968;-77
2022/07/12 13:00:54;;;;;;;;;;;25.60;99.90;;;;;;8376986;28;19920;-76
2022/07/12 13:04:55;;;;;;;;;;;25.60;99.90;;;;;;8367680;28;19927;-76
2022/07/12 13:08:57;;;;;;;;;;;25.70;99.90;;;;;;8387811;28;19924;-76
2022/07/12 13:12:59;;;;;;;;;;;25.70;99.90;;;;;;8350479;28;19955;-77
2022/07/12 13:17:01;;;;;;;;;;;25.80;99.90;;;;;;8361802;28;19928;-76
2022/07/12 13:21:02;;;;;;;;;;;25.80;99.90;;;;;;8366584;28;22404;-76
2022/07/12 13:25:04;;;;;;;;;;;25.80;99.90;;;;;;8370104;28;19924;-76
2022/07/12 13:29:06;;;;;;;;;;;25.80;99.90;;;;;;8362666;28;20295;-76
2022/07/12 13:33:07;;;;;;;;;;;25.90;99.90;;;;;;8365698;28;19928;-76
2022/07/12 13:37:09;;;;;;;;;;;25.80;99.90;;;;;;8363640;28;19932;-76
2022/07/12 13:41:11;;;;;;;;;;;25.80;99.90;;;;;;8366908;28;19924;-76
2022/07/12 13:45:14;;;;;;;;;;;25.80;99.90;;;;;;8369678;28;19943;-76
2022/07/12 13:49:16;;;;;;;;;;;25.80;99.90;;;;;;8363079;28;19939;-76
2022/07/12 13:53:17;;;;;;;;;;;25.90;99.90;;;;;;8365311;28;20311;-76
2022/07/12 13:57:19;;;;;;;;;;;25.90;99.90;;;;;;8362519;28;19929;-76
2022/07/12 14:01:21;;;;;;;;;;;25.90;99.90;;;;;;8361996;28;19951;-77
2022/07/12 14:05:22;;;;;;;;;;;26.00;99.90;;;;;;8380170;28;19925;-76
2022/07/12 14:09:24;;;;;;;;;;;26.00;99.90;;;;;;8369485;28;19921;-76
2022/07/12 14:13:26;;;;;;;;;;;26.00;99.90;;;;;;8357039;28;19927;-76
2022/07/12 14:17:28;;;;;;;;;;;26.10;99.90;;;;;;8377312;28;19920;-77
2022/07/12 14:21:29;;;;;;;;;;;26.10;99.90;;;;;;8365618;28;19920;-76
2022/07/12 14:25:31;;;;;;;;;;;26.10;99.90;;;;;;8370832;28;20363;-76
2022/07/12 14:29:33;;;;;;;;;;;26.10;99.90;;;;;;8364066;28;19932;-76
2022/07/12 14:33:35;;;;;;;;;;;26.10;99.90;;;;;;8362483;28;19921;-76
2022/07/12 14:37:36;;;;;;;;;;;26.10;99.90;;;;;;8361914;28;19920;-76
2022/07/12 14:41:39;;;;;;;;;;;26.10;99.90;;;;;;8365583;28;19927;-76
2022/07/12 14:45:42;;;;;;;;;;;26.10;99.90;;;;;;8361421;28;19928;-76
2022/07/12 14:49:44;;;;;;;;;;;26.10;99.90;;;;;;8372238;28;19924;-75
2022/07/12 14:53:48;;;;;;;;;;;26.10;99.90;;;;;;8360730;28;20324;-76
2022/07/12 14:57:49;;;;;;;;;;;26.00;99.90;;;;;;8358572;28;19924;-76
2022/07/12 15:01:52;;;;;;;;;;;26.00;99.90;;;;;;8366175;28;20011;-76
2022/07/12 15:05:54;;;;;;;;;;;26.10;99.90;;;;;;8358488;28;20248;-76
2022/07/12 15:09:57;;;;;;;;;;;26.10;99.90;;;;;;8363272;28;20210;-75
2022/07/12 15:13:59;;;;;;;;;;;26.10;99.90;;;;;;8359078;28;19920;-76
2022/07/12 15:18:00;;;;;;;;;;;26.10;99.90;;;;;;8361535;28;19932;-76
2022/07/12 15:22:02;;;;;;;;;;;26.00;99.90;;;;;;8361528;28;19978;-76
2022/07/12 15:26:05;;;;;;;;;;;26.00;99.90;;;;;;8362593;28;19925;-76
2022/07/12 15:30:06;;;;;;;;;;;26.00;99.90;;;;;;8361829;28;19921;-76
2022/07/12 15:34:08;;;;;;;;;;;26.00;99.90;;;;;;8360963;28;19928;-76
2022/07/12 15:38:10;;;;;;;;;;;26.00;99.90;;;;;;8359619;28;19920;-77
2022/07/12 15:42:11;;;;;;;;;;;26.00;99.90;;;;;;8371121;28;19925;-76
2022/07/12 15:46:13;;;;;;;;;;;26.00;99.90;;;;;;8359043;28;19921;-76
2022/07/12 15:50:15;;;;;;;;;;;26.00;99.90;;;;;;8357532;28;19920;-76
2022/07/12 15:54:16;;;;;;;;;;;26.00;99.90;;;;;;8365582;28;19924;-76
2022/07/12 15:58:18;;;;;;;;;;;26.00;99.90;;;;;;8362422;28;19921;-76
2022/07/12 16:02:20;;;;;;;;;;;26.00;99.90;;;;;;8358571;28;19924;-75
2022/07/12 16:06:24;;;;;;;;;;;25.90;99.90;;;;;;8361850;28;19931;-76
2022/07/12 16:10:26;;;;;;;;;;;25.90;99.90;;;;;;8354329;28;19931;-76
2022/07/12 16:14:28;;;;;;;;;;;25.90;99.90;;;;;;8356672;28;19936;-76
2022/07/12 16:18:31;;;;;;;;;;;26.00;99.90;;;;;;8369055;28;19925;-75
2022/07/12 16:22:32;;;;;;;;;;;26.10;99.90;;;;;;8350282;28;19927;-76
2022/07/12 16:26:34;;;;;;;;;;;26.20;99.90;;;;;;8343278;28;19921;-76
2022/07/12 16:30:36;;;;;;;;;;;26.20;99.90;;;;;;8357001;28;19935;-76
2022/07/12 16:34:38;;;;;;;;;;;26.30;99.90;;;;;;8360359;28;19924;-76
2022/07/12 16:38:40;;;;;;;;;;;26.30;99.90;;;;;;8374059;28;19920;-76
2022/07/12 16:42:42;;;;;;;;;;;26.30;99.90;;;;;;8363229;28;19928;-76
2022/07/12 16:46:44;;;;;;;;;;;26.20;99.90;;;;;;8367800;28;19931;-76
2022/07/12 16:50:46;;;;;;;;;;;26.20;99.90;;;;;;8353691;28;20291;-75
2022/07/12 16:54:47;;;;;;;;;;;26.10;99.90;;;;;;8355599;28;19921;-76
2022/07/12 16:58:54;;;;;;;;;;;26.10;99.90;;;;;;8360894;28;24145;-76
2022/07/12 17:02:56;;;;;;;;;;;26.00;99.90;;;;;;8361545;28;20342;-76
2022/07/12 17:06:58;;;;;;;;;;;25.90;99.90;;;;;;8366634;28;20772;-76
2022/07/12 17:11:00;;;;;;;;;;;25.90;99.90;;;;;;8380391;28;19943;-76
2022/07/12 17:15:02;;;;;;;;;;;25.80;99.90;;;;;;8369309;28;19944;-76
2022/07/12 17:19:04;;;;;;;;;;;25.70;99.90;;;;;;8362336;28;25085;-76
2022/07/12 17:23:06;;;;;;;;;;;25.60;99.90;;;;;;8362990;28;19933;-76
2022/07/12 17:27:08;;;;;;;;;;;25.60;99.90;;;;;;8364360;28;25113;-76
2022/07/12 17:31:09;;;;;;;;;;;25.60;99.90;;;;;;8384629;28;19967;-75
2022/07/12 17:35:11;;;;;;;;;;;25.50;99.90;;;;;;8365695;28;19924;-75
2022/07/12 17:39:13;;;;;;;;;;;25.50;99.90;;;;;;8359720;28;19931;-76
2022/07/12 17:43:15;;;;;;;;;;;25.50;99.90;;;;;;8365872;28;19935;-76
2022/07/12 17:47:17;;;;;;;;;;;25.50;99.90;;;;;;8358936;28;24144;-76
2022/07/12 17:51:18;;;;;;;;;;;25.40;99.90;;;;;;8366662;28;19920;-75
2022/07/12 17:55:20;;;;;;;;;;;25.40;99.90;;;;;;8368527;28;19932;-76
2022/07/12 17:59:23;;;;;;;;;;;25.50;99.90;;;;;;8383516;28;19932;-76
2022/07/12 18:03:24;;;;;;;;;;;25.50;99.90;;;;;;8364306;28;19932;-76
2022/07/12 18:07:26;;;;;;;;;;;25.50;99.90;;;;;;8364699;28;19951;-76
2022/07/12 18:15:48;;;;;;;;;;;25.50;99.90;;;;;;8363498;28;19986;-76
2022/07/12 18:19:50;;;;;;;;;;;25.50;99.90;;;;;;8362542;28;20002;-76
2022/07/12 18:23:51;;;;;;;;;;;25.50;99.90;;;;;;8361247;28;19947;-75
2022/07/12 18:27:53;;;;;;;;;;;25.50;99.90;;;;;;8344750;28;19931;-76
2022/07/12 18:31:55;;;;;;;;;;;25.50;99.90;;;;;;8362840;28;19928;-76
2022/07/12 18:35:56;;;;;;;;;;;25.50;99.90;;;;;;8359299;28;19952;-76
2022/07/12 18:39:58;;;;;;;;;;;25.50;99.90;;;;;;8360213;28;19954;-76
2022/07/12 18:44:00;;;;;;;;;;;25.40;99.90;;;;;;8368032;28;19929;-76
2022/07/12 18:48:02;;;;;;;;;;;25.40;99.90;;;;;;8368107;28;19961;-76
2022/07/12 18:52:04;;;;;;;;;;;25.40;99.90;;;;;;8371799;28;19935;-76
2022/07/12 18:56:05;;;;;;;;;;;25.30;99.90;;;;;;8372068;28;19959;-76
2022/07/12 19:00:09;;;;;;;;;;;25.30;99.90;;;;;;8371951;28;19921;-76
2022/07/12 19:04:13;;;;;;;;;;;25.20;99.90;;;;;;8369574;28;19932;-76
2022/07/12 19:08:15;;;;;;;;;;;25.20;99.90;;;;;;8357525;28;19959;-76
2022/07/12 19:12:17;;;;;;;;;;;25.20;99.90;;;;;;8360316;28;19924;-76
2022/07/12 19:16:18;;;;;;;;;;;25.10;99.90;;;;;;8358771;28;19928;-76
2022/07/12 19:20:20;;;;;;;;;;;25.00;99.90;;;;;;8365403;28;19951;-76
2022/07/12 19:24:22;;;;;;;;;;;25.00;99.90;;;;;;8359799;28;20191;-76
2022/07/12 19:28:23;;;;;;;;;;;25.00;99.90;;;;;;8368251;28;20290;-76
2022/07/12 19:32:25;;;;;;;;;;;24.90;99.90;;;;;;8359158;28;19924;-77
2022/07/12 19:36:27;;;;;;;;;;;24.90;99.90;;;;;;8342157;28;19924;-77
2022/07/12 19:40:28;;;;;;;;;;;24.80;99.90;;;;;;8355342;28;19924;-76
2022/07/12 19:44:30;;;;;;;;;;;24.80;99.90;;;;;;8365627;28;20434;-76
2022/07/12 19:48:33;;;;;;;;;;;24.70;99.90;;;;;;8385509;28;19929;-76
2022/07/12 19:52:34;;;;;;;;;;;24.70;99.90;;;;;;8368513;28;20279;-77
2022/07/12 19:56:36;;;;;;;;;;;24.60;99.90;;;;;;8384328;28;19924;-76
2022/07/12 20:00:37;;;;;;;;;;;24.50;99.90;;;;;;8367113;28;19924;-77
2022/07/12 20:04:39;;;;;;;;;;;24.50;99.90;;;;;;8351280;28;20345;-77
2022/07/12 20:08:41;;;;;;;;;;;24.40;99.90;;;;;;8359390;28;19928;-77
2022/07/12 20:12:43;;;;;;;;;;;24.30;99.90;;;;;;8359749;28;19921;-76
2022/07/12 20:16:45;;;;;;;;;;;24.20;99.90;;;;;;8343722;28;19931;-76
2022/07/12 20:20:48;;;;;;;;;;;24.20;99.90;;;;;;8361644;28;20375;-77
2022/07/12 20:24:49;;;;;;;;;;;24.10;99.90;;;;;;8366120;28;19931;-76
2022/07/12 20:28:51;;;;;;;;;;;24.10;99.90;;;;;;8358579;28;20398;-77
2022/07/12 20:37:19;;;;;;;;;;;24.00;99.90;;;;;;8355143;28;19924;-76
2022/07/12 20:41:21;;;;;;;;;;;23.90;99.90;;;;;;8364955;28;20331;-76
2022/07/12 20:45:22;;;;;;;;;;;23.90;99.90;;;;;;8357017;28;19929;-76
2022/07/12 20:49:24;;;;;;;;;;;23.80;99.90;;;;;;8358458;28;19932;-76
2022/07/12 20:53:26;;;;;;;;;;;23.80;99.90;;;;;;8359570;28;19921;-77
2022/07/12 20:57:27;;;;;;;;;;;23.70;99.90;;;;;;8362009;28;19943;-76
2022/07/12 21:01:29;;;;;;;;;;;23.70;99.90;;;;;;8369363;28;19924;-76
2022/07/12 21:05:32;;;;;;;;;;;23.60;99.90;;;;;;8380656;28;20378;-76
2022/07/12 21:09:33;;;;;;;;;;;23.60;99.90;;;;;;8378080;28;20347;-76
2022/07/12 21:13:35;;;;;;;;;;;23.50;99.90;;;;;;8396558;28;19924;-77
2022/07/12 21:17:39;;;;;;;;;;;23.50;99.90;;;;;;8358034;28;19939;-77
2022/07/12 21:21:40;;;;;;;;;;;23.50;99.90;;;;;;8365939;28;19940;-76
2022/07/12 21:25:43;;;;;;;;;;;23.50;99.90;;;;;;8361579;28;20598;-77
2022/07/12 21:29:44;;;;;;;;;;;23.40;99.90;;;;;;8368042;28;19920;-77
2022/07/12 21:33:46;;;;;;;;;;;23.30;99.90;;;;;;8379301;28;19921;-77
2022/07/12 21:37:48;;;;;;;;;;;23.30;99.90;;;;;;8368479;28;19956;-77
2022/07/12 21:41:50;;;;;;;;;;;23.20;99.90;;;;;;8369997;28;19924;-77
2022/07/12 21:45:51;;;;;;;;;;;23.20;99.90;;;;;;8372890;28;19921;-77
2022/07/12 21:49:54;;;;;;;;;;;23.30;99.90;;;;;;8377577;28;20314;-76
2022/07/12 21:53:55;;;;;;;;;;;23.30;99.90;;;;;;8367624;28;19920;-77
2022/07/12 21:57:57;;;;;;;;;;;23.30;99.90;;;;;;8375468;28;19925;-76
2022/07/12 22:01:58;;;;;;;;;;;23.30;99.90;;;;;;8375679;28;19920;-77
2022/07/12 22:06:00;;;;;;;;;;;23.30;99.90;;;;;;8379433;28;19974;-76
2022/07/12 22:10:02;;;;;;;;;;;23.30;99.90;;;;;;8381247;28;19928;-76
2022/07/12 22:14:04;;;;;;;;;;;23.30;99.90;;;;;;8376107;28;19920;-77
2022/07/12 22:18:06;;;;;;;;;;;23.30;99.90;;;;;;8388379;28;19928;-76
2022/07/12 22:22:07;;;;;;;;;;;23.20;99.90;;;;;;8376217;28;19970;-77
2022/07/12 22:26:09;;;;;;;;;;;23.20;99.90;;;;;;8371884;28;19928;-76
2022/07/12 22:30:11;;;;;;;;;;;23.20;99.90;;;;;;8377310;28;19931;-77
2022/07/12 22:34:12;;;;;;;;;;;23.20;99.90;;;;;;8379782;28;19921;-77
2022/07/12 22:38:14;;;;;;;;;;;23.10;99.90;;;;;;8369422;28;20259;-76
2022/07/12 22:42:16;;;;;;;;;;;23.10;99.90;;;;;;8359777;28;19928;-76
2022/07/12 22:46:17;;;;;;;;;;;23.10;99.90;;;;;;8377833;28;19928;-77
2022/07/12 22:51:48;;;;;;;;;;;23.10;99.90;;;;;;8368577;28;19928;-76
2022/07/12 22:54:41;;;;;;;;;;;23.00;99.90;;;;;;8368245;28;19925;-76
2022/07/12 22:58:43;;;;;;;;;;;23.00;99.90;;;;;;8365245;28;20019;-77
2022/07/12 23:02:44;;;;;;;;;;;23.00;99.90;;;;;;8371037;28;19925;-77
2022/07/12 23:06:46;;;;;;;;;;;23.00;99.90;;;;;;8367966;28;20293;-77
2022/07/12 23:10:48;;;;;;;;;;;22.90;99.90;;;;;;8377545;28;19924;-76
2022/07/12 23:14:49;;;;;;;;;;;22.90;99.90;;;;;;8393097;28;20426;-77
2022/07/12 23:18:51;;;;;;;;;;;22.80;99.90;;;;;;8372152;28;19970;-77
2022/07/12 23:22:53;;;;;;;;;;;22.70;99.90;;;;;;8368583;28;19948;-76
2022/07/12 23:26:55;;;;;;;;;;;22.70;99.90;;;;;;8356633;28;19921;-77
2022/07/12 23:30:56;;;;;;;;;;;22.60;99.90;;;;;;8375481;28;20291;-77
2022/07/12 23:34:58;;;;;;;;;;;22.50;99.90;;;;;;8380025;28;19942;-77
2022/07/12 23:39:00;;;;;;;;;;;22.40;99.90;;;;;;8369794;28;19929;-77
2022/07/12 23:43:02;;;;;;;;;;;22.40;99.90;;;;;;8357275;28;19928;-76